createdAt,value
2019-06-27T00:02:31.886Z,13.30
2019-06-27T00:05:20.906Z,13.21
2019-06-27T00:08:02.465Z,13.17
2019-06-27T00:10:34.434Z,13.15
2019-06-27T00:15:53.478Z,13.12
2019-06-27T00:21:32.090Z,13.07
2019-06-27T00:24:02.204Z,13.02
2019-06-27T00:27:11.277Z,13.00
2019-06-27T00:29:40.749Z,12.99
2019-06-27T00:32:10.072Z,12.92
2019-06-27T00:35:18.790Z,12.95
2019-06-27T00:40:49.917Z,12.96
2019-06-27T00:46:29.839Z,12.88
2019-06-27T00:48:59.738Z,12.83
2019-06-27T00:51:29.789Z,12.82
2019-06-27T00:53:59.661Z,12.81
2019-06-27T00:56:29.093Z,12.79
2019-06-27T00:58:59.577Z,12.80
2019-06-27T01:01:29.573Z,12.77
2019-06-27T01:03:59.024Z,12.73
2019-06-27T01:06:29.764Z,12.76
2019-06-27T01:09:00.281Z,12.71
2019-06-27T01:12:08.984Z,12.73
2019-06-27T01:14:38.730Z,12.71
2019-06-27T01:17:47.631Z,12.66
2019-06-27T01:23:45.136Z,12.63
2019-06-27T01:26:15.855Z,12.62
2019-06-27T01:28:45.518Z,12.63
2019-06-27T01:34:12.164Z,12.64
2019-06-27T01:36:42.176Z,12.64
2019-06-27T01:39:51.158Z,12.66
2019-06-27T01:42:21.224Z,12.68
2019-06-27T01:45:09.537Z,12.67
2019-06-27T01:47:39.373Z,12.66
2019-06-27T01:50:09.327Z,12.67
2019-06-27T01:52:41.192Z,12.64
2019-06-27T01:55:52.337Z,12.60
2019-06-27T02:01:17.044Z,12.62
2019-06-27T02:06:56.442Z,12.66
2019-06-27T02:09:27.096Z,12.71
2019-06-27T02:12:36.088Z,12.76
2019-06-27T02:18:21.086Z,12.80
2019-06-27T02:20:50.486Z,12.81
2019-06-27T02:23:21.005Z,12.85
2019-06-27T02:25:51.651Z,12.85
2019-06-27T02:31:22.553Z,12.78
2019-06-27T02:37:07.107Z,12.81
2019-06-27T02:39:37.018Z,12.84
2019-06-27T02:42:07.036Z,12.84
2019-06-27T02:44:36.861Z,12.83
2019-06-27T02:47:06.994Z,12.90
2019-06-27T02:49:36.868Z,12.95
2019-06-27T02:52:06.500Z,12.96
2019-06-27T02:54:36.299Z,12.99
2019-06-27T02:57:44.996Z,12.98
2019-06-27T03:00:54.206Z,12.99
2019-06-27T03:03:24.009Z,13.01
2019-06-27T03:09:08.241Z,12.96
2019-06-27T03:11:37.906Z,12.98
2019-06-27T03:14:46.601Z,13.02
2019-06-27T03:17:16.662Z,13.08
2019-06-27T03:19:46.221Z,13.11
2019-06-27T03:25:22.877Z,13.07
2019-06-27T03:27:52.328Z,13.10
2019-06-27T03:30:22.108Z,13.15
2019-06-27T03:32:54.219Z,13.14
2019-06-27T03:35:23.639Z,13.14
2019-06-27T03:38:32.534Z,13.14
2019-06-27T03:41:13.777Z,13.16
2019-06-27T03:43:43.883Z,13.14
2019-06-27T03:49:22.484Z,13.15
2019-06-27T03:51:52.310Z,13.20
2019-06-27T03:55:01.372Z,13.21
2019-06-27T03:57:30.756Z,13.28
2019-06-27T04:00:01.284Z,13.27
2019-06-27T04:02:30.790Z,13.24
2019-06-27T04:05:00.909Z,13.29
2019-06-27T04:08:10.202Z,13.33
2019-06-27T04:13:54.719Z,13.43
2019-06-27T04:19:34.297Z,13.53
2019-06-27T04:22:03.798Z,13.59
2019-06-27T04:24:33.705Z,13.52
2019-06-27T04:27:04.509Z,13.52
2019-06-27T04:29:35.104Z,13.49
2019-06-27T04:32:07.175Z,13.56
2019-06-27T04:35:16.130Z,13.57
2019-06-27T04:37:47.253Z,13.50
2019-06-27T04:40:56.501Z,13.47
2019-06-27T04:46:41.885Z,13.46
2019-06-27T04:49:13.871Z,13.67
2019-06-27T04:51:44.616Z,13.76
2019-06-27T04:54:15.930Z,13.85
2019-06-27T04:56:57.767Z,13.94
2019-06-27T05:00:06.965Z,14.15
2019-06-27T05:08:17.782Z,14.70
2019-06-27T05:11:26.498Z,14.89
2019-06-27T05:16:51.827Z,15.02
2019-06-27T05:19:22.698Z,15.05
2019-06-27T05:21:52.459Z,15.05
2019-06-27T05:24:22.241Z,15.17
2019-06-27T05:30:09.644Z,15.42
2019-06-27T05:32:32.683Z,15.40
2019-06-27T05:35:41.907Z,15.46
2019-06-27T05:38:11.257Z,15.42
2019-06-27T05:40:40.725Z,15.50
2019-06-27T05:43:10.965Z,15.54
2019-06-27T05:45:40.764Z,15.57
2019-06-27T05:48:10.244Z,15.75
2019-06-27T05:53:35.428Z,15.97
2019-06-27T05:56:16.806Z,16.00
2019-06-27T05:58:58.122Z,16.02
2019-06-27T06:01:27.997Z,16.03
2019-06-27T06:04:36.873Z,16.03
2019-06-27T06:07:07.387Z,16.06
2019-06-27T06:09:36.862Z,16.15
2019-06-27T06:12:06.812Z,16.22
2019-06-27T06:14:36.390Z,16.15
2019-06-27T06:17:05.790Z,16.16
2019-06-27T06:19:35.191Z,16.19
2019-06-27T06:22:05.244Z,16.02
2019-06-27T06:24:34.604Z,15.85
2019-06-27T06:27:04.486Z,15.94
2019-06-27T06:29:33.855Z,16.09
2019-06-27T06:32:43.038Z,16.21
2019-06-27T06:38:23.240Z,16.42
2019-06-27T06:40:52.850Z,16.56
2019-06-27T06:43:42.631Z,16.74
2019-06-27T06:46:12.471Z,16.73
2019-06-27T06:51:37.674Z,16.95
2019-06-27T06:54:08.112Z,16.97
2019-06-27T06:56:38.086Z,17.16
2019-06-27T06:59:21.449Z,17.24
2019-06-27T07:02:03.623Z,17.38
2019-06-27T07:07:13.052Z,17.11
2019-06-27T07:09:41.570Z,17.01
2019-06-27T07:12:11.897Z,17.18
2019-06-27T07:17:40.166Z,17.08
2019-06-27T07:20:48.893Z,16.94
2019-06-27T07:23:18.869Z,17.21
2019-06-27T07:25:48.480Z,17.46
2019-06-27T07:28:20.511Z,17.55
2019-06-27T07:30:50.373Z,17.48
2019-06-27T07:33:21.319Z,17.41
2019-06-27T07:35:51.941Z,17.27
2019-06-27T07:38:22.690Z,17.32
2019-06-27T07:40:52.822Z,17.32
2019-06-27T07:43:22.807Z,17.29
2019-06-27T07:48:48.749Z,17.26
2019-06-27T07:54:27.805Z,17.28
2019-06-27T07:56:57.303Z,17.47
2019-06-27T07:59:26.821Z,17.61
2019-06-27T08:01:56.743Z,17.66
2019-06-27T08:04:26.091Z,17.48
2019-06-27T08:06:55.466Z,17.51
2019-06-27T08:09:25.337Z,17.77
2019-06-27T08:14:43.258Z,17.76
2019-06-27T08:17:52.419Z,17.88
2019-06-27T08:22:57.984Z,18.00
2019-06-27T08:28:22.811Z,17.69
2019-06-27T08:33:55.949Z,17.69
2019-06-27T08:36:25.462Z,17.67
2019-06-27T08:38:55.072Z,17.49
2019-06-27T08:41:25.248Z,17.47
2019-06-27T08:44:34.090Z,17.52
2019-06-27T08:50:00.285Z,18.07
2019-06-27T08:58:32.839Z,17.80
2019-06-27T09:01:02.322Z,17.95
2019-06-27T09:03:32.178Z,18.28
2019-06-27T09:06:02.049Z,18.43
2019-06-27T09:08:31.925Z,18.55
2019-06-27T09:11:01.699Z,18.77
2019-06-27T09:14:10.759Z,18.80
2019-06-27T09:16:41.229Z,18.76
2019-06-27T09:19:10.687Z,18.62
2019-06-27T09:22:19.543Z,18.55
2019-06-27T09:24:48.998Z,18.46
2019-06-27T09:30:48.862Z,18.06
2019-06-27T09:33:18.719Z,18.13
2019-06-27T09:35:48.330Z,18.07
2019-06-27T09:38:57.142Z,18.21
2019-06-27T09:41:26.880Z,18.80
2019-06-27T09:43:56.790Z,19.14
2019-06-27T09:47:06.474Z,19.17
2019-06-27T09:49:36.409Z,18.99
2019-06-27T09:52:05.978Z,18.91
2019-06-27T09:54:35.464Z,19.20
2019-06-27T09:57:44.756Z,19.50
2019-06-27T10:00:53.906Z,19.53
2019-06-27T10:03:34.790Z,19.84
2019-06-27T10:08:59.632Z,19.79
2019-06-27T10:11:29.038Z,20.08
2019-06-27T10:13:58.544Z,20.19
2019-06-27T10:16:28.301Z,20.07
2019-06-27T10:18:57.686Z,19.51
2019-06-27T10:21:27.188Z,19.72
2019-06-27T10:23:57.761Z,19.48
2019-06-27T10:26:28.086Z,19.41
2019-06-27T10:28:57.535Z,19.35
2019-06-27T10:32:06.223Z,19.33
2019-06-27T10:34:35.684Z,19.39
2019-06-27T10:37:44.549Z,19.58
2019-06-27T10:46:30.877Z,20.08
2019-06-27T10:49:00.546Z,20.19
2019-06-27T10:51:29.982Z,20.13
2019-06-27T10:53:59.771Z,19.88
2019-06-27T10:56:29.594Z,19.62
2019-06-27T10:59:00.799Z,19.53
2019-06-27T11:01:30.623Z,19.68
2019-06-27T11:07:01.823Z,19.87
2019-06-27T11:09:31.729Z,19.86
2019-06-27T11:12:01.237Z,19.79
2019-06-27T11:14:31.521Z,19.78
2019-06-27T11:17:01.286Z,19.84
2019-06-27T11:22:26.485Z,20.69
2019-06-27T11:24:56.217Z,21.18
2019-06-27T11:27:27.412Z,21.48
2019-06-27T11:29:57.259Z,21.14
2019-06-27T11:32:26.710Z,20.82
2019-06-27T11:34:56.800Z,20.65
2019-06-27T11:38:05.787Z,20.65
2019-06-27T11:43:50.399Z,20.73
2019-06-27T11:46:59.097Z,21.35
2019-06-27T11:49:28.756Z,21.80
2019-06-27T11:54:48.837Z,21.73
2019-06-27T11:57:58.805Z,21.25
2019-06-27T12:03:25.167Z,20.75
2019-06-27T12:05:55.391Z,20.33
2019-06-27T12:08:24.812Z,20.58
2019-06-27T12:10:54.306Z,20.95
2019-06-27T12:13:23.883Z,21.12
2019-06-27T12:15:53.425Z,21.46
2019-06-27T12:18:23.046Z,21.50
2019-06-27T12:20:53.457Z,21.27
2019-06-27T12:23:22.828Z,20.94
2019-06-27T12:25:53.200Z,20.89
2019-06-27T12:31:44.192Z,20.52
2019-06-27T12:37:24.123Z,21.47
2019-06-27T12:39:54.242Z,21.79
2019-06-27T12:42:34.845Z,21.96
2019-06-27T12:50:41.905Z,20.85
2019-06-27T12:56:20.486Z,20.54
2019-06-27T12:58:51.028Z,20.51
2019-06-27T13:01:21.224Z,20.42
2019-06-27T13:03:51.215Z,20.47
2019-06-27T13:06:21.956Z,20.45
2019-06-27T13:08:51.408Z,20.43
2019-06-27T13:14:10.902Z,21.24
2019-06-27T13:16:40.340Z,21.71
2019-06-27T13:19:12.034Z,22.25
2019-06-27T13:24:38.757Z,22.75
2019-06-27T13:27:08.564Z,22.25
2019-06-27T13:30:17.954Z,21.74
2019-06-27T13:32:47.871Z,21.56
2019-06-27T13:35:17.819Z,22.60
2019-06-27T13:38:27.314Z,24.27
2019-06-27T13:40:57.645Z,25.93
2019-06-27T13:43:27.452Z,25.61
2019-06-27T13:45:56.909Z,26.85
2019-06-27T13:48:27.015Z,25.66
2019-06-27T13:51:36.119Z,24.16
2019-06-27T13:54:10.298Z,24.23
2019-06-27T13:56:39.853Z,24.12
2019-06-27T13:59:09.246Z,24.19
2019-06-27T14:01:38.645Z,23.71
2019-06-27T14:04:57.288Z,23.16
2019-06-27T14:07:19.462Z,22.50
2019-06-27T14:09:53.975Z,21.98
2019-06-27T14:12:21.405Z,22.12
2019-06-27T14:14:59.623Z,22.39
2019-06-27T14:17:24.840Z,22.76
2019-06-27T14:19:54.639Z,22.64
2019-06-27T14:23:03.994Z,22.50
2019-06-27T14:25:34.728Z,22.50
2019-06-27T14:28:04.665Z,22.14
2019-06-27T14:30:35.142Z,22.16
2019-06-27T14:36:11.657Z,23.20
2019-06-27T14:38:42.657Z,23.65
2019-06-27T14:41:13.043Z,23.76
2019-06-27T14:43:42.572Z,23.56
2019-06-27T14:49:21.129Z,23.74
2019-06-27T14:54:52.062Z,25.80
2019-06-27T14:57:21.879Z,26.24
2019-06-27T14:59:51.373Z,26.68
2019-06-27T15:02:21.012Z,26.88
2019-06-27T15:04:52.818Z,26.15
2019-06-27T15:07:22.513Z,25.45
2019-06-27T15:09:52.373Z,25.94
2019-06-27T15:12:55.811Z,27.16
2019-06-27T15:15:24.349Z,27.37
2019-06-27T15:17:53.869Z,27.36
2019-06-27T15:20:23.273Z,27.40
2019-06-27T15:22:53.269Z,27.79
2019-06-27T15:25:28.401Z,27.36
2019-06-27T15:27:58.257Z,26.18
2019-06-27T15:30:28.203Z,24.76
2019-06-27T15:33:02.657Z,23.30
2019-06-27T15:38:47.059Z,21.98
2019-06-27T15:41:16.958Z,21.55
2019-06-27T15:43:47.462Z,21.28
2019-06-27T15:46:17.746Z,21.20
2019-06-27T15:48:47.649Z,21.07
2019-06-27T15:51:17.978Z,20.99
2019-06-27T15:53:48.245Z,20.89
2019-06-27T15:56:18.337Z,20.76
2019-06-27T15:59:28.331Z,20.60
2019-06-27T16:01:57.758Z,20.48
2019-06-27T16:04:33.756Z,20.25
2019-06-27T16:07:00.277Z,20.15
2019-06-27T16:09:30.322Z,20.00
2019-06-27T16:12:02.041Z,20.00
2019-06-27T16:14:32.497Z,19.97
2019-06-27T16:17:14.260Z,19.98
2019-06-27T16:20:23.932Z,19.87
2019-06-27T16:22:54.129Z,19.74
2019-06-27T16:25:23.555Z,19.60
2019-06-27T16:27:54.117Z,19.61
2019-06-27T16:30:45.301Z,19.64
2019-06-27T16:33:54.012Z,19.59
2019-06-27T16:36:26.005Z,19.48
2019-06-27T16:38:54.969Z,19.32
2019-06-27T16:41:27.283Z,19.33
2019-06-27T16:47:23.176Z,19.27
2019-06-27T16:49:53.947Z,19.15
2019-06-27T16:52:23.356Z,19.12
2019-06-27T16:54:54.069Z,19.14
2019-06-27T16:57:24.478Z,19.14
2019-06-27T17:00:33.302Z,19.12
2019-06-27T17:03:03.717Z,19.08
2019-06-27T17:05:33.721Z,19.10
2019-06-27T17:08:03.520Z,19.12
2019-06-27T17:10:34.515Z,19.10
2019-06-27T17:13:05.223Z,19.08
2019-06-27T17:15:36.380Z,19.08
2019-06-27T17:18:07.097Z,19.03
2019-06-27T17:21:17.617Z,19.00
2019-06-27T17:23:47.485Z,18.98
2019-06-27T17:26:56.178Z,18.90
2019-06-27T17:29:44.825Z,18.85
2019-06-27T17:32:15.057Z,18.77
2019-06-27T17:34:44.700Z,18.69
2019-06-27T17:37:18.462Z,18.61
2019-06-27T17:39:49.073Z,18.56
2019-06-27T17:42:37.515Z,18.52
2019-06-27T17:45:46.275Z,18.48
2019-06-27T17:48:16.636Z,18.42
2019-06-27T17:51:25.371Z,18.40
2019-06-27T17:53:55.481Z,18.39
2019-06-27T17:56:24.951Z,18.39
2019-06-27T17:58:54.479Z,18.38
2019-06-27T18:01:25.243Z,18.38
2019-06-27T18:03:55.024Z,18.36
2019-06-27T18:07:14.045Z,18.31
2019-06-27T18:09:36.638Z,18.26
2019-06-27T18:12:06.891Z,18.20
2019-06-27T18:17:46.208Z,18.08
2019-06-27T18:23:33.981Z,18.01
2019-06-27T18:26:42.818Z,17.95
2019-06-27T18:29:31.956Z,17.91
2019-06-27T18:34:57.300Z,17.76
2019-06-27T18:43:12.722Z,17.64
2019-06-27T18:46:21.651Z,17.61
2019-06-27T18:48:52.194Z,17.55
2019-06-27T18:51:21.586Z,17.53
2019-06-27T18:53:52.409Z,17.50
2019-06-27T18:56:23.196Z,17.46
2019-06-27T19:02:03.014Z,17.44
2019-06-27T19:04:32.442Z,17.41
2019-06-27T19:07:03.151Z,17.34
2019-06-27T19:15:23.788Z,17.14
2019-06-27T19:18:32.619Z,17.10
2019-06-27T19:21:05.774Z,17.04
2019-06-27T19:23:55.270Z,16.92
2019-06-27T19:26:24.876Z,16.88
2019-06-27T19:28:58.191Z,16.83
2019-06-27T19:31:27.635Z,16.74
2019-06-27T19:37:04.131Z,16.61
2019-06-27T19:39:34.120Z,16.55
2019-06-27T19:42:03.841Z,16.46
2019-06-27T19:44:33.895Z,16.42
2019-06-27T19:47:04.665Z,16.40
2019-06-27T19:49:34.088Z,16.31
2019-06-27T19:52:03.869Z,16.23
2019-06-27T19:57:42.772Z,16.08
2019-06-27T20:03:27.507Z,15.90
2019-06-27T20:05:57.268Z,15.82
2019-06-27T20:08:27.278Z,15.76
2019-06-27T20:10:57.748Z,15.68
2019-06-27T20:16:37.488Z,15.44
2019-06-27T20:19:07.484Z,15.38
2019-06-27T20:21:37.412Z,15.32
2019-06-27T20:24:07.919Z,15.26
2019-06-27T20:29:30.654Z,15.23
2019-06-27T20:31:59.433Z,15.13
2019-06-27T20:34:29.925Z,15.01
2019-06-27T20:36:59.749Z,14.93
2019-06-27T20:39:48.324Z,14.88
2019-06-27T20:42:18.429Z,14.83
2019-06-27T20:44:50.580Z,14.78
2019-06-27T20:47:20.306Z,14.76
2019-06-27T20:49:57.367Z,14.74
2019-06-27T20:52:28.227Z,14.72
2019-06-27T20:54:57.986Z,14.69
2019-06-27T21:09:25.726Z,14.34
2019-06-27T21:11:55.646Z,14.24
2019-06-27T21:14:25.940Z,14.19
2019-06-27T21:16:56.716Z,14.14
2019-06-27T21:19:27.699Z,14.06
2019-06-27T21:22:00.598Z,14.03
2019-06-27T21:24:31.126Z,13.98
2019-06-27T21:27:01.365Z,13.92
2019-06-27T21:29:31.662Z,13.86
2019-06-27T21:32:01.273Z,13.79
2019-06-27T21:34:31.800Z,13.73
2019-06-27T21:37:01.574Z,13.71
2019-06-27T21:39:31.040Z,13.65
2019-06-27T21:42:01.174Z,13.58
2019-06-27T21:44:30.766Z,13.58
2019-06-27T21:47:00.257Z,13.51
2019-06-27T21:49:49.007Z,13.45
2019-06-27T22:04:36.876Z,13.19
2019-06-27T22:07:06.515Z,13.20
2019-06-27T22:09:38.335Z,13.18
2019-06-27T22:12:08.231Z,13.13
2019-06-27T22:14:38.154Z,13.07
2019-06-27T22:17:08.132Z,13.04
2019-06-27T22:19:37.508Z,13.03
2019-06-27T22:25:16.020Z,12.99
2019-06-27T22:27:47.273Z,12.94
2019-06-27T22:35:54.100Z,12.88
2019-06-27T22:38:42.338Z,12.81
2019-06-27T22:41:31.371Z,12.82
2019-06-27T22:44:20.025Z,12.81
2019-06-27T22:47:08.393Z,12.82
2019-06-27T22:52:58.031Z,12.73
2019-06-27T23:01:18.857Z,12.64
2019-06-27T23:03:48.876Z,12.54
2019-06-27T23:06:18.687Z,12.48
2019-06-27T23:09:27.387Z,12.49
2019-06-27T23:11:57.050Z,12.47
2019-06-27T23:14:27.417Z,12.45
2019-06-27T23:16:57.721Z,12.39
2019-06-27T23:19:27.896Z,12.41
2019-06-27T23:24:54.943Z,12.36
2019-06-27T23:30:35.388Z,12.34
2019-06-27T23:33:05.469Z,12.36
2019-06-27T23:35:35.403Z,12.42
2019-06-27T23:38:05.306Z,12.43
2019-06-27T23:40:35.024Z,12.47
2019-06-27T23:43:04.929Z,12.50
2019-06-27T23:45:35.767Z,12.52
2019-06-27T23:48:05.902Z,12.55
2019-06-27T23:50:35.707Z,12.59
2019-06-27T23:53:06.377Z,12.64
2019-06-27T23:55:36.235Z,12.66
2019-06-27T23:58:06.783Z,12.67
